Time;durP1;ratioP1;P1;durP2;ratioP2;P2;SDS_P1;SDS_P2;PMS_P1;PMS_P2;Temp;Humidity;BMP_temperature;BMP_pressure;BME280_temperature;BME280_humidity;BME280_pressure;Samples;Min_cycle;Max_cycle;Signal;HPM_P1;HPM_P2
2021/08/28 02:45:26;;;;;;;4.00;1.92;;;15.30;96.70;;;;;;5737901;24;20830;-77
2021/08/28 02:48:01;;;;;;;3.28;1.50;;;15.40;96.90;;;;;;4816144;29;20084;-79
2021/08/28 02:50:28;;;;;;;;;;;15.40;96.90;;;;;;4821909;29;20035;-79
2021/08/28 02:52:57;;;;;;;3.80;2.05;;;15.40;96.80;;;;;;4834195;29;19924;-79
2021/08/28 02:55:29;;;;;;;2.72;1.90;;;15.40;96.50;;;;;;4849344;29;20034;-79
2021/08/28 02:57:55;;;;;;;4.90;1.73;;;15.50;96.50;;;;;;4834378;29;20045;-79
2021/08/28 03:00:22;;;;;;;3.40;1.80;;;15.50;96.50;;;;;;4849129;29;20074;-79
2021/08/28 03:02:49;;;;;;;2.00;1.30;;;15.40;96.50;;;;;;4849690;29;20040;-79
2021/08/28 03:05:17;;;;;;;2.42;1.58;;;15.50;95.70;;;;;;4834026;29;20536;-79
2021/08/28 03:07:45;;;;;;;2.92;1.65;;;15.60;95.40;;;;;;4833972;29;20038;-79
2021/08/28 03:10:14;;;;;;;2.70;1.40;;;15.60;95.20;;;;;;4834138;29;20237;-79
2021/08/28 03:12:42;;;;;;;3.80;1.50;;;15.60;95.10;;;;;;4834301;29;20038;-80
2021/08/28 03:15:08;;;;;;;3.42;1.80;;;15.70;94.80;;;;;;4834359;29;20040;-79
2021/08/28 03:17:45;;;;;;;1.77;1.20;;;15.70;95.10;;;;;;4815948;29;20030;-80
2021/08/28 03:20:13;;;;;;;;;;;15.80;94.80;;;;;;4801185;29;20056;-79
2021/08/28 03:22:41;;;;;;;1.88;1.30;;;15.80;94.30;;;;;;4799993;29;19909;-79
2021/08/28 03:25:08;;;;;;;3.67;1.40;;;15.90;94.60;;;;;;4815738;29;20093;-79
2021/08/28 03:27:37;;;;;;;2.83;1.25;;;15.90;93.80;;;;;;4800512;29;20035;-79
2021/08/28 03:30:11;;;;;;;1.90;1.13;;;15.90;93.80;;;;;;4800858;29;20030;-79
2021/08/28 03:32:43;;;;;;;7.88;1.52;;;15.90;93.30;;;;;;4801183;29;20242;-79
2021/08/28 03:35:12;;;;;;;1.40;1.30;;;15.90;93.30;;;;;;4815385;29;20031;-79
2021/08/28 03:37:41;;;;;;;2.15;1.40;;;15.90;93.70;;;;;;4815638;29;20027;-79
2021/08/28 03:40:11;;;;;;;2.15;1.27;;;15.90;93.60;;;;;;4800951;29;20027;-79
2021/08/28 03:42:38;;;;;;;;;;;15.90;93.70;;;;;;4801360;29;20060;-79
2021/08/28 03:45:06;;;;;;;;;;;15.90;93.90;;;;;;4815974;29;19924;-79
2021/08/28 03:47:36;;;;;;;2.95;1.20;;;15.80;94.10;;;;;;4814867;29;19923;-80
2021/08/28 03:50:04;;;;;;;2.38;1.50;;;15.80;94.40;;;;;;4815315;29;20026;-79
2021/08/28 03:52:33;;;;;;;2.08;1.60;;;15.70;94.50;;;;;;4815404;29;20027;-79
2021/08/28 03:54:59;;;;;;;3.38;1.58;;;15.70;94.60;;;;;;4815674;29;20368;-79
2021/08/28 03:57:25;;;;;;;3.20;1.60;;;15.60;94.70;;;;;;4815492;29;20105;-79
2021/08/28 03:59:51;;;;;;;1.88;1.63;;;15.60;94.90;;;;;;4815308;29;20031;-79
2021/08/28 04:02:20;;;;;;;2.75;1.77;;;15.50;95.10;;;;;;4815126;29;20026;-80
2021/08/28 04:04:49;;;;;;;2.90;1.80;;;15.50;95.30;;;;;;4800856;29;20034;-79
2021/08/28 04:07:15;;;;;;;4.28;2.22;;;15.50;95.30;;;;;;4800516;29;20345;-79
2021/08/28 04:09:42;;;;;;;2.97;1.92;;;15.40;95.40;;;;;;4815162;29;20034;-79
2021/08/28 04:12:08;;;;;;;3.15;2.05;;;15.30;95.40;;;;;;4815449;29;20046;-77
2021/08/28 04:14:43;;;;;;;3.88;2.45;;;15.20;95.40;;;;;;4815483;29;20077;-80
2021/08/28 04:17:09;;;;;;;2.78;2.20;;;15.20;95.40;;;;;;4829563;29;20325;-79
2021/08/28 04:19:34;;;;;;;4.15;2.47;;;15.10;95.50;;;;;;4833318;29;20038;-80
2021/08/28 04:22:17;;;;;;;4.90;2.28;;;15.10;95.70;;;;;;4833300;29;20027;-80
2021/08/28 04:25:02;;;;;;;3.78;2.58;;;15.00;95.90;;;;;;4833707;29;20360;-79
2021/08/28 04:27:47;;;;;;;2.80;2.38;;;14.90;96.00;;;;;;4834322;29;20038;-79
2021/08/28 04:30:22;;;;;;;3.30;2.55;;;14.90;96.20;;;;;;4833416;29;20031;-80
2021/08/28 04:32:48;;;;;;;4.32;2.47;;;14.80;96.50;;;;;;4833123;29;20041;-80
2021/08/28 04:35:14;;;;;;;6.65;3.00;;;14.80;96.60;;;;;;4834491;29;20073;-80
2021/08/28 04:37:44;;;;;;;7.15;3.05;;;14.90;96.70;;;;;;4836360;29;20027;-80
2021/08/28 04:40:11;;;;;;;5.15;2.83;;;14.90;96.70;;;;;;4821290;29;20102;-80
2021/08/28 04:42:36;;;;;;;3.63;2.67;;;15.00;96.60;;;;;;4821194;29;20030;-80
2021/08/28 04:45:05;;;;;;;;;;;15.00;96.50;;;;;;4821678;29;20038;-80
2021/08/28 04:47:45;;;;;;;6.05;2.90;;;15.00;96.60;;;;;;4818114;29;19921;-80
2021/08/28 04:50:11;;;;;;;5.32;2.80;;;15.20;96.40;;;;;;4803322;29;20360;-80
2021/08/28 04:52:38;;;;;;;4.53;2.60;;;15.30;96.40;;;;;;4817905;29;20079;-80
2021/08/28 04:55:04;;;;;;;4.25;2.70;;;15.30;96.30;;;;;;4802577;29;20315;-80
2021/08/28 04:57:30;;;;;;;5.03;2.73;;;15.40;95.90;;;;;;4802967;29;20094;-80
2021/08/28 04:59:56;;;;;;;7.30;3.00;;;15.40;95.90;;;;;;4817882;29;20027;-80
2021/08/28 05:02:40;;;;;;;4.28;2.63;;;15.40;96.00;;;;;;4818086;29;20064;-80
2021/08/28 05:05:09;;;;;;;2.70;2.15;;;15.40;96.10;;;;;;4817784;29;20061;-79
2021/08/28 05:07:36;;;;;;;4.35;2.80;;;15.40;96.00;;;;;;4817538;29;20027;-79
2021/08/28 05:10:02;;;;;;;8.15;2.60;;;15.50;96.10;;;;;;4802536;29;20139;-80
2021/08/28 05:12:30;;;;;;;3.80;2.67;;;15.50;96.00;;;;;;4802938;29;20225;-80
2021/08/28 05:15:16;;;;;;;4.47;2.55;;;15.50;95.90;;;;;;4817678;29;20397;-80
2021/08/28 05:17:54;;;;;;;4.88;2.30;;;15.50;96.00;;;;;;4817371;29;20198;-80
2021/08/28 05:20:22;;;;;;;5.80;2.03;;;15.60;95.70;;;;;;4817419;29;20230;-79
2021/08/28 05:23:06;;;;;;;2.60;1.67;;;15.70;95.70;;;;;;4818752;29;20030;-80
2021/08/28 05:25:52;;;;;;;3.90;1.87;;;15.80;95.40;;;;;;4763046;30;20040;-80
2021/08/28 05:28:18;;;;;;;2.50;1.95;;;16.00;95.40;;;;;;4748437;30;20084;-79
2021/08/28 05:30:44;;;;;;;4.35;1.90;;;16.20;94.90;;;;;;4748268;30;20036;-79
2021/08/28 05:33:14;;;;;;;6.18;2.70;;;16.50;94.60;;;;;;4748004;30;20099;-80
2021/08/28 05:35:41;;;;;;;5.00;1.92;;;16.70;94.70;;;;;;4747632;30;20078;-79
2021/08/28 05:38:27;;;;;;;;;;;17.00;94.30;;;;;;4762906;30;20036;-79
2021/08/28 05:40:53;;;;;;;4.20;1.80;;;17.30;93.60;;;;;;4747828;30;19918;-79
2021/08/28 05:43:19;;;;;;;4.07;1.95;;;17.40;93.70;;;;;;4747908;30;20223;-80
2021/08/28 05:46:11;;;;;;;2.83;1.60;;;17.60;92.70;;;;;;4720101;30;20069;-79
2021/08/28 05:48:57;;;;;;;2.87;1.60;;;17.70;91.60;;;;;;4709671;30;20038;-80
2021/08/28 05:51:46;;;;;;;1.90;1.70;;;17.70;91.40;;;;;;4710039;30;20037;-80
2021/08/28 05:54:12;;;;;;;6.60;2.05;;;17.80;91.50;;;;;;4709913;30;20240;-79
2021/08/28 05:56:38;;;;;;;5.43;1.60;;;17.90;90.80;;;;;;4709579;30;20108;-79
2021/08/28 05:59:04;;;;;;;5.13;1.63;;;17.90;90.80;;;;;;4709787;30;20040;-79
2021/08/28 06:01:31;;;;;;;4.33;2.13;;;17.90;90.10;;;;;;4709784;30;20033;-79
2021/08/28 06:03:56;;;;;;;2.78;1.98;;;17.90;90.00;;;;;;4790504;30;20342;-79
2021/08/28 06:06:42;;;;;;;4.88;2.05;;;18.00;90.00;;;;;;4785730;30;20247;-80
2021/08/28 06:09:46;;;;;;;3.92;1.92;;;18.10;90.10;;;;;;4744502;30;20040;-80
2021/08/28 06:12:31;;;;;;;4.38;1.88;;;18.30;90.20;;;;;;4744720;30;20035;-79
2021/08/28 06:15:16;;;;;;;6.05;2.20;;;18.40;90.10;;;;;;4744427;30;20154;-79
2021/08/28 06:17:52;;;;;;;3.05;1.70;;;18.50;88.00;;;;;;4744276;30;20029;-79
2021/08/28 06:20:18;;;;;;;5.07;2.22;;;18.50;88.40;;;;;;4729642;30;20045;-80
2021/08/28 06:22:44;;;;;;;6.53;2.35;;;18.60;87.80;;;;;;4754298;30;20040;-79
2021/08/28 06:25:11;;;;;;;6.13;1.80;;;18.70;88.50;;;;;;4779665;30;20231;-79
2021/08/28 06:27:36;;;;;;;5.03;1.95;;;18.90;88.20;;;;;;4794562;30;20357;-79
2021/08/28 06:30:08;;;;;;;3.75;2.55;;;18.90;88.00;;;;;;4778976;30;20063;-79
2021/08/28 06:32:34;;;;;;;2.67;1.88;;;18.90;87.40;;;;;;4779232;30;20038;-79
2021/08/28 06:35:00;;;;;;;5.43;1.95;;;19.00;87.30;;;;;;4794214;30;20036;-79
2021/08/28 06:37:34;;;;;;;3.28;2.08;;;19.10;87.20;;;;;;4793459;30;20051;-79
2021/08/28 06:40:20;;;;;;;4.20;2.40;;;19.20;87.50;;;;;;4803447;29;20041;-79
2021/08/28 06:43:04;;;;;;;5.50;2.42;;;19.30;85.80;;;;;;4847063;29;20033;-80
2021/08/28 06:45:49;;;;;;;4.15;2.10;;;19.50;84.60;;;;;;4840708;29;20068;-77
2021/08/28 06:48:40;;;;;;;6.70;2.28;;;19.90;84.00;;;;;;4803740;29;20052;-78
2021/08/28 06:51:24;;;;;;;2.72;1.67;;;20.00;81.80;;;;;;4802689;29;20053;-78
2021/08/28 06:54:09;;;;;;;2.85;1.88;;;20.10;80.60;;;;;;4806781;29;20050;-77
2021/08/28 06:56:58;;;;;;;3.75;1.85;;;20.30;81.60;;;;;;4778023;30;20075;-78
2021/08/28 06:59:43;;;;;;;6.72;2.25;;;20.50;80.30;;;;;;4778910;30;20107;-79
2021/08/28 07:02:28;;;;;;;2.03;1.55;;;20.60;77.00;;;;;;4778751;30;20039;-78
2021/08/28 07:05:01;;;;;;;3.35;1.65;;;20.70;78.60;;;;;;4778330;30;20035;-78
2021/08/28 07:07:51;;;;;;;4.30;2.90;;;20.80;77.20;;;;;;4778261;30;20035;-78
2021/08/28 07:10:18;;;;;;;5.23;2.57;;;20.80;76.50;;;;;;4778286;30;20033;-78
2021/08/28 07:12:44;;;;;;;4.87;2.10;;;20.90;77.10;;;;;;4778273;30;20040;-78
2021/08/28 07:15:11;;;;;;;5.60;1.77;;;21.00;75.30;;;;;;4778433;30;20048;-78
2021/08/28 07:17:52;;;;;;;4.10;2.05;;;20.80;74.50;;;;;;4766520;30;20068;-78
2021/08/28 07:20:19;;;;;;;4.68;1.88;;;20.80;76.20;;;;;;4778498;30;20103;-78
2021/08/28 07:22:47;;;;;;;6.78;1.75;;;20.70;73.50;;;;;;4763497;30;20384;-78
2021/08/28 07:25:38;;;;;;;6.40;2.10;;;20.70;74.10;;;;;;4783230;30;20055;-78
2021/08/28 07:28:10;;;;;;;6.82;2.28;;;20.80;73.70;;;;;;4795868;30;20048;-78
2021/08/28 07:31:02;;;;;;;7.07;2.78;;;20.70;71.00;;;;;;4796274;30;20043;-78
2021/08/28 07:33:29;;;;;;;9.32;2.30;;;20.70;71.90;;;;;;4795516;29;20050;-78
2021/08/28 07:35:55;;;;;;;7.60;2.65;;;20.70;70.60;;;;;;4817570;29;20103;-78
2021/08/28 07:38:20;;;;;;;5.00;2.55;;;20.60;71.00;;;;;;4818122;29;20034;-78
2021/08/28 07:40:47;;;;;;;11.03;2.80;;;20.60;71.60;;;;;;4818326;29;20026;-78
2021/08/28 07:43:13;;;;;;;5.85;2.60;;;20.60;71.00;;;;;;4818379;29;20109;-78
2021/08/28 07:45:45;;;;;;;4.68;2.20;;;20.50;72.10;;;;;;4814470;29;20046;-78
2021/08/28 07:48:16;;;;;;;8.90;2.40;;;20.50;70.80;;;;;;4800510;29;20034;-78
2021/08/28 07:50:42;;;;;;;6.37;2.47;;;20.70;69.70;;;;;;4799611;29;20041;-79
2021/08/28 07:53:08;;;;;;;4.57;2.20;;;20.80;70.10;;;;;;4799617;29;20280;-78
2021/08/28 07:55:39;;;;;;;5.55;2.35;;;21.20;69.20;;;;;;4814978;29;20041;-78
2021/08/28 07:58:04;;;;;;;6.65;2.45;;;21.40;69.50;;;;;;4818118;29;20317;-78
2021/08/28 08:00:30;;;;;;;7.18;3.40;;;21.60;68.80;;;;;;4814524;29;20046;-78
2021/08/28 08:02:56;;;;;;;5.57;2.42;;;21.60;67.50;;;;;;4799057;29;20023;-78
2021/08/28 08:05:54;;;;;;;2.78;2.10;;;21.60;66.90;;;;;;4787475;30;20036;-78
2021/08/28 08:08:42;;;;;;;6.53;2.30;;;21.30;67.00;;;;;;4726133;30;20034;-78
2021/08/28 08:11:37;;;;;;;2.80;1.80;;;21.50;68.50;;;;;;4682695;30;20042;-78
2021/08/28 08:14:35;;;;;;;8.15;2.83;;;22.00;68.00;;;;;;4682953;30;20042;-78
2021/08/28 08:17:33;;;;;;;6.55;2.05;;;22.30;67.90;;;;;;4675668;30;20043;-78
2021/08/28 08:20:37;;;;;;;6.32;2.30;;;22.30;65.60;;;;;;4675977;30;20063;-78
2021/08/28 08:23:22;;;;;;;7.57;2.88;;;22.00;66.30;;;;;;4676312;30;20359;-78
2021/08/28 08:26:15;;;;;;;6.88;2.25;;;22.00;67.00;;;;;;4676234;30;20308;-78
2021/08/28 08:29:00;;;;;;;2.95;1.85;;;22.10;67.60;;;;;;4676333;30;20184;-78
2021/08/28 08:31:41;;;;;;;5.18;2.20;;;22.00;67.30;;;;;;4661886;30;20218;-78
2021/08/28 08:34:30;;;;;;;3.00;1.60;;;22.10;66.10;;;;;;4676603;30;20137;-80
2021/08/28 08:36:56;;;;;;;2.47;1.92;;;21.70;65.20;;;;;;4662220;30;20041;-79
2021/08/28 08:39:22;;;;;;;5.25;1.90;;;21.50;66.60;;;;;;4661861;30;21159;-77
2021/08/28 08:41:49;;;;;;;4.15;1.45;;;21.30;65.80;;;;;;4686757;30;20061;-78
2021/08/28 08:44:16;;;;;;;3.38;1.10;;;21.20;66.40;;;;;;4678954;30;20045;-77
2021/08/28 08:46:44;;;;;;;1.95;1.33;;;21.10;65.20;;;;;;4754016;30;20047;-79
2021/08/28 08:49:12;;;;;;;1.98;0.98;;;21.10;65.40;;;;;;4833653;29;20054;-78
2021/08/28 08:51:39;;;;;;;4.47;1.00;;;21.10;64.30;;;;;;4821097;29;20051;-78
2021/08/28 08:54:06;;;;;;;3.17;1.13;;;21.00;65.00;;;;;;4826527;29;20050;-78
2021/08/28 08:56:33;;;;;;;2.47;1.17;;;20.80;65.10;;;;;;4843077;29;20325;-77
2021/08/28 08:59:00;;;;;;;3.38;1.08;;;20.60;66.00;;;;;;4852122;29;20101;-78
2021/08/28 09:01:27;;;;;;;2.67;1.30;;;20.40;67.20;;;;;;4840228;29;20091;-78
2021/08/28 09:04:21;;;;;;;1.88;0.95;;;20.30;68.50;;;;;;4851266;29;20034;-78
2021/08/28 09:06:49;;;;;;;3.47;1.20;;;20.10;68.70;;;;;;4838341;29;20148;-77
2021/08/28 09:09:15;;;;;;;4.63;1.20;;;20.00;70.40;;;;;;4840704;29;20078;-78
2021/08/28 09:12:08;;;;;;;3.35;1.20;;;19.90;70.70;;;;;;4840616;29;20038;-77
2021/08/28 09:14:33;;;;;;;1.42;1.00;;;19.90;71.70;;;;;;4844050;29;20048;-78
2021/08/28 09:17:14;;;;;;;2.30;1.05;;;19.90;70.00;;;;;;4841940;29;20106;-78
2021/08/28 09:19:42;;;;;;;2.80;1.10;;;20.10;70.00;;;;;;4831529;29;20026;-78
2021/08/28 09:22:20;;;;;;;2.13;1.15;;;20.00;68.90;;;;;;4818375;29;20054;-78
2021/08/28 09:24:47;;;;;;;4.47;1.30;;;20.10;69.90;;;;;;4817135;29;20041;-78
2021/08/28 09:27:32;;;;;;;2.72;1.30;;;20.00;70.30;;;;;;4838330;29;20030;-78
2021/08/28 09:29:59;;;;;;;8.25;1.27;;;20.20;70.80;;;;;;4815274;29;20144;-78
2021/08/28 09:32:24;;;;;;;1.65;1.40;;;20.20;69.10;;;;;;4823476;29;20034;-78
2021/08/28 09:34:50;;;;;;;2.75;1.27;;;20.10;70.10;;;;;;4852417;29;20065;-78
2021/08/28 09:37:16;;;;;;;2.85;1.50;;;20.00;71.20;;;;;;4835190;29;20109;-78
2021/08/28 09:39:47;;;;;;;2.78;1.10;;;20.10;70.80;;;;;;4834680;29;20031;-78
2021/08/28 09:42:22;;;;;;;3.78;0.90;;;20.30;71.40;;;;;;4850341;29;20037;-78
2021/08/28 09:44:50;;;;;;;2.17;1.13;;;20.40;71.00;;;;;;4850444;29;20091;-78
2021/08/28 09:47:22;;;;;;;2.03;1.42;;;20.30;70.70;;;;;;4819331;29;20065;-78
2021/08/28 09:49:50;;;;;;;7.63;2.70;;;20.50;71.10;;;;;;4834189;29;20407;-79
2021/08/28 09:52:18;;;;;;;1.95;1.42;;;20.60;71.40;;;;;;4834441;29;20026;-79
2021/08/28 09:54:44;;;;;;;3.55;1.42;;;20.80;70.60;;;;;;4834696;29;20117;-80
2021/08/28 09:57:10;;;;;;;4.90;1.10;;;20.90;70.20;;;;;;4817925;29;20076;-80
2021/08/28 09:59:36;;;;;;;3.00;1.38;;;21.10;69.50;;;;;;4805055;29;20026;-82
2021/08/28 10:02:15;;;;;;;2.60;1.20;;;21.20;68.90;;;;;;4818002;29;20094;-80
2021/08/28 10:04:54;;;;;;;1.48;0.80;;;21.30;68.50;;;;;;4849878;29;20037;-82
2021/08/28 10:07:28;;;;;;;3.17;1.08;;;21.30;67.00;;;;;;4827039;29;20034;-81
2021/08/28 10:09:59;;;;;;;0.85;0.80;;;21.40;67.70;;;;;;4801154;29;20066;-82
2021/08/28 10:12:26;;;;;;;0.90;0.63;;;21.50;67.00;;;;;;4806882;29;20352;-82
2021/08/28 10:14:55;;;;;;;1.55;0.73;;;21.40;65.20;;;;;;4832834;29;20050;-82
2021/08/28 10:17:22;;;;;;;1.58;0.95;;;21.30;64.20;;;;;;4830993;29;20397;-81
2021/08/28 10:19:51;;;;;;;1.83;0.57;;;21.10;65.40;;;;;;4832314;29;20040;-83
2021/08/28 10:22:22;;;;;;;1.30;0.60;;;21.30;66.40;;;;;;4827479;29;20113;-83
2021/08/28 10:24:56;;;;;;;2.10;0.90;;;21.50;65.10;;;;;;4837747;29;20040;-82
2021/08/28 10:27:24;;;;;;;0.98;0.80;;;21.80;65.50;;;;;;4837911;29;20229;-83
2021/08/28 10:29:51;;;;;;;2.55;1.00;;;22.00;64.80;;;;;;4835050;29;20042;-78
2021/08/28 10:32:17;;;;;;;4.50;2.47;;;22.20;65.00;;;;;;4834068;29;20049;-78
2021/08/28 10:34:43;;;;;;;3.67;1.50;;;22.40;65.00;;;;;;4835610;29;20034;-82
2021/08/28 10:37:09;;;;;;;1.75;0.82;;;22.50;63.50;;;;;;4834950;29;20038;-82
2021/08/28 10:39:35;;;;;;;0.73;0.60;;;22.70;62.00;;;;;;4835057;29;20057;-82
2021/08/28 10:42:02;;;;;;;2.47;1.27;;;22.90;63.00;;;;;;4833322;29;20180;-82
2021/08/28 10:44:28;;;;;;;;;;;23.20;64.50;;;;;;4817728;29;20198;-80
2021/08/28 10:46:54;;;;;;;3.20;1.00;;;23.20;61.20;;;;;;4829344;29;19917;-80
2021/08/28 10:49:23;;;;;;;1.88;1.17;;;22.90;60.80;;;;;;4835121;29;20038;-79
2021/08/28 10:51:56;;;;;;;1.58;0.95;;;23.00;61.10;;;;;;4831572;29;20037;-81
2021/08/28 10:54:29;;;;;;;1.52;1.00;;;23.40;60.40;;;;;;4832313;29;20298;-80
2021/08/28 10:56:57;;;;;;;5.43;1.92;;;23.30;60.40;;;;;;4820174;29;20266;-80
2021/08/28 10:59:26;;;;;;;2.38;1.60;;;23.10;61.80;;;;;;4841217;29;20030;-82
2021/08/28 11:02:00;;;;;;;8.15;1.80;;;22.90;63.60;;;;;;4834373;29;20341;-80
2021/08/28 11:04:32;;;;;;;1.70;1.17;;;22.80;64.30;;;;;;4833973;29;20030;-81
2021/08/28 11:07:24;;;;;;;4.38;1.98;;;22.80;65.20;;;;;;4834649;29;20066;-81
2021/08/28 11:10:11;;;;;;;1.98;1.40;;;22.80;65.30;;;;;;4834800;29;20075;-81
2021/08/28 11:12:55;;;;;;;2.17;1.60;;;22.80;64.80;;;;;;4835439;29;20037;-81
2021/08/28 11:15:24;;;;;;;1.92;1.17;;;23.00;66.30;;;;;;4835118;29;20031;-81
2021/08/28 11:17:54;;;;;;;1.40;1.13;;;23.40;65.30;;;;;;4819558;29;20041;-81
2021/08/28 11:20:25;;;;;;;2.20;1.17;;;23.80;64.20;;;;;;4819041;29;20053;-81
2021/08/28 11:22:51;;;;;;;1.48;1.15;;;24.00;61.90;;;;;;4819056;29;20163;-81
2021/08/28 11:25:22;;;;;;;5.97;2.20;;;23.90;61.60;;;;;;4834243;29;20042;-82
2021/08/28 11:27:54;;;;;;;10.93;5.97;;;23.60;61.80;;;;;;4818922;29;20045;-81
2021/08/28 11:30:45;;;;;;;5.82;1.80;;;23.30;63.00;;;;;;4849949;29;20034;-81
2021/08/28 11:33:23;;;;;;;1.60;1.30;;;23.20;62.70;;;;;;4849822;29;20105;-81
2021/08/28 11:35:52;;;;;;;1.73;1.20;;;23.20;63.10;;;;;;4850129;29;20038;-81
2021/08/28 11:38:24;;;;;;;1.90;1.45;;;23.20;64.10;;;;;;4849599;29;20034;-81
2021/08/28 11:41:01;;;;;;;1.48;1.10;;;23.20;62.20;;;;;;4849871;29;20033;-81
2021/08/28 11:43:41;;;;;;;2.05;1.45;;;23.20;64.00;;;;;;4835022;29;20038;-81
2021/08/28 11:46:13;;;;;;;2.55;1.10;;;23.40;63.00;;;;;;4830988;29;20054;-81
2021/08/28 11:48:45;;;;;;;2.92;1.40;;;23.50;64.00;;;;;;4833967;29;20574;-83
2021/08/28 11:51:16;;;;;;;1.75;1.27;;;23.60;63.20;;;;;;4821417;29;20064;-84
2021/08/28 11:53:43;;;;;;;1.02;0.85;;;23.50;61.70;;;;;;4820083;29;20086;-81
2021/08/28 11:56:11;;;;;;;2.22;1.00;;;23.40;61.70;;;;;;4819783;29;20080;-82
2021/08/28 11:58:50;;;;;;;3.78;1.08;;;23.20;63.10;;;;;;4838216;29;20031;-83
2021/08/28 12:01:26;;;;;;;1.58;1.27;;;23.10;63.40;;;;;;4852524;29;20014;-83
2021/08/28 12:03:52;;;;;;;2.00;1.35;;;23.00;63.00;;;;;;4843884;29;20030;-82
2021/08/28 12:06:18;;;;;;;1.55;1.00;;;23.00;63.20;;;;;;4837471;29;20148;-83
2021/08/28 12:08:44;;;;;;;2.35;1.50;;;23.00;64.00;;;;;;4837227;29;20030;-83
2021/08/28 12:11:10;;;;;;;1.50;1.25;;;23.00;63.40;;;;;;4819589;29;20035;-83
2021/08/28 12:13:52;;;;;;;2.70;0.85;;;23.10;64.70;;;;;;4865394;29;20328;-83
2021/08/28 12:16:27;;;;;;;1.70;1.20;;;23.30;63.60;;;;;;4841939;29;20034;-83
2021/08/28 12:19:10;;;;;;;1.48;1.30;;;23.20;60.40;;;;;;4841718;29;20317;-83
2021/08/28 12:21:47;;;;;;;2.72;1.15;;;22.90;61.80;;;;;;4819360;29;20034;-83
2021/08/28 12:24:27;;;;;;;2.10;1.20;;;22.70;62.50;;;;;;4818697;29;20539;-84
2021/08/28 12:26:56;;;;;;;1.63;1.20;;;22.50;63.30;;;;;;4803987;29;20074;-83
2021/08/28 12:29:27;;;;;;;2.70;1.98;;;22.40;64.90;;;;;;4803829;29;20035;-83
2021/08/28 12:32:00;;;;;;;2.60;1.30;;;22.30;65.10;;;;;;4819658;29;20291;-83
2021/08/28 12:34:30;;;;;;;1.90;1.70;;;22.10;64.90;;;;;;4818672;29;20031;-83
2021/08/28 12:36:59;;;;;;;2.42;1.30;;;21.90;66.10;;;;;;4803501;29;20031;-83
2021/08/28 12:39:25;;;;;;;1.52;1.30;;;21.90;65.60;;;;;;4804291;29;20030;-83
2021/08/28 12:41:51;;;;;;;1.38;1.00;;;22.10;64.50;;;;;;4804027;29;20042;-83
2021/08/28 12:44:17;;;;;;;1.85;0.90;;;22.30;65.70;;;;;;4803763;29;20041;-83
2021/08/28 12:46:48;;;;;;;1.77;0.85;;;22.60;65.00;;;;;;4814664;29;20137;-82
2021/08/28 12:49:19;;;;;;;1.10;0.88;;;22.70;63.80;;;;;;4822131;29;20030;-83
2021/08/28 12:52:01;;;;;;;1.52;1.10;;;22.90;63.50;;;;;;4815065;29;20278;-82
2021/08/28 12:54:32;;;;;;;2.20;1.00;;;23.10;63.60;;;;;;4817751;29;20046;-82
2021/08/28 12:57:10;;;;;;;1.77;1.20;;;23.30;64.40;;;;;;4824666;29;20368;-83
2021/08/28 12:59:47;;;;;;;2.55;1.20;;;23.50;64.30;;;;;;4829989;29;20258;-82
2021/08/28 13:02:21;;;;;;;1.55;1.00;;;23.40;64.00;;;;;;4823363;29;20038;-82
2021/08/28 13:04:48;;;;;;;0.80;0.80;;;23.40;62.50;;;;;;4821161;29;20061;-82
2021/08/28 13:07:18;;;;;;;;;;;23.50;63.60;;;;;;4821519;29;20037;-82
2021/08/28 13:09:53;;;;;;;1.60;1.10;;;23.70;61.80;;;;;;4836249;29;19943;-82
2021/08/28 13:12:37;;;;;;;3.28;1.10;;;23.70;62.80;;;;;;4836343;29;20042;-83
2021/08/28 13:15:04;;;;;;;5.13;1.20;;;23.80;63.20;;;;;;4836886;29;20042;-81
2021/08/28 13:17:30;;;;;;;1.88;1.25;;;23.70;63.80;;;;;;4822572;29;20382;-81
2021/08/28 13:20:07;;;;;;;1.33;0.90;;;23.70;62.60;;;;;;4821010;29;20278;-81
2021/08/28 13:22:35;;;;;;;1.30;1.00;;;23.70;63.80;;;;;;4835989;29;20034;-81
2021/08/28 13:25:02;;;;;;;3.25;1.30;;;23.80;64.40;;;;;;4820914;29;20038;-81
2021/08/28 13:27:31;;;;;;;3.13;1.00;;;24.00;62.00;;;;;;4837221;29;20073;-82
2021/08/28 13:30:18;;;;;;;2.63;1.10;;;24.10;62.10;;;;;;4854493;29;20030;-81
2021/08/28 13:33:01;;;;;;;1.52;1.10;;;24.30;61.50;;;;;;4853939;29;20029;-81
2021/08/28 13:35:30;;;;;;;3.28;1.20;;;24.60;59.90;;;;;;4854305;29;20161;-82
2021/08/28 13:37:57;;;;;;;2.28;0.98;;;24.30;59.70;;;;;;4836062;29;20159;-82
2021/08/28 13:40:24;;;;;;;2.67;1.10;;;24.10;61.10;;;;;;4821204;29;20026;-82
2021/08/28 13:42:50;;;;;;;2.25;1.17;;;23.90;60.50;;;;;;4835665;29;20028;-80
2021/08/28 13:45:16;;;;;;;2.03;1.23;;;23.80;62.00;;;;;;4835790;29;20255;-80
2021/08/28 13:47:42;;;;;;;3.03;1.67;;;23.70;61.40;;;;;;4817328;29;20093;-81
2021/08/28 13:50:09;;;;;;;2.37;1.10;;;23.50;59.70;;;;;;4817653;29;20038;-81
2021/08/28 13:52:36;;;;;;;2.03;1.00;;;23.30;60.50;;;;;;4832633;29;20049;-81
2021/08/28 13:55:02;;;;;;;1.00;0.70;;;23.10;60.80;;;;;;4801815;29;20066;-79
2021/08/28 13:57:28;;;;;;;2.10;1.10;;;22.90;60.40;;;;;;4850850;29;20030;-79
2021/08/28 13:59:53;;;;;;;1.45;1.10;;;23.00;62.80;;;;;;4819601;29;20038;-80
2021/08/28 14:02:19;;;;;;;1.85;1.08;;;23.10;62.30;;;;;;4820009;29;20343;-78
2021/08/28 14:04:45;;;;;;;1.73;1.00;;;23.20;62.00;;;;;;4826337;29;20046;-77
2021/08/28 14:07:11;;;;;;;1.23;1.00;;;23.10;62.20;;;;;;4817149;29;20041;-78
2021/08/28 14:09:36;;;;;;;2.42;1.00;;;23.00;60.70;;;;;;4827686;29;20034;-78
2021/08/28 14:12:02;;;;;;;2.90;0.90;;;23.10;62.80;;;;;;4825405;29;20087;-78
2021/08/28 14:14:28;;;;;;;2.03;0.93;;;23.20;61.50;;;;;;4815696;29;20042;-77
2021/08/28 14:16:54;;;;;;;2.60;0.85;;;23.40;62.00;;;;;;4841106;29;20313;-77
2021/08/28 14:19:19;;;;;;;1.77;0.70;;;23.90;61.20;;;;;;4853505;29;20030;-78
2021/08/28 14:21:45;;;;;;;1.15;0.80;;;23.90;59.40;;;;;;4852682;29;20178;-78
2021/08/28 14:24:11;;;;;;;1.42;1.08;;;24.10;59.40;;;;;;4852577;29;20372;-78
2021/08/28 14:26:37;;;;;;;1.52;0.80;;;24.10;58.40;;;;;;4837323;29;20057;-78
2021/08/28 14:29:03;;;;;;;4.70;0.90;;;24.20;58.50;;;;;;4853310;29;20044;-78
2021/08/28 14:31:30;;;;;;;1.00;0.70;;;24.30;59.90;;;;;;4852392;29;20038;-78
2021/08/28 14:33:56;;;;;;;0.80;0.70;;;24.30;58.40;;;;;;4846768;29;20038;-79
2021/08/28 14:36:23;;;;;;;3.28;0.68;;;24.50;58.70;;;;;;4803732;29;20027;-78
2021/08/28 14:38:50;;;;;;;3.40;0.80;;;24.80;58.10;;;;;;4816472;29;20221;-78
2021/08/28 14:41:16;;;;;;;1.50;1.08;;;25.10;56.00;;;;;;4825345;29;20054;-78
2021/08/28 14:43:41;;;;;;;1.63;0.98;;;25.10;56.30;;;;;;4834439;29;20392;-78
2021/08/28 14:46:07;;;;;;;2.05;0.70;;;24.90;55.70;;;;;;4825223;29;20057;-78
2021/08/28 14:48:36;;;;;;;2.58;0.70;;;24.90;56.00;;;;;;4815215;29;20057;-83
2021/08/28 14:51:04;;;;;;;0.70;0.60;;;24.60;57.00;;;;;;4825659;29;20030;-83
2021/08/28 14:53:30;;;;;;;2.83;0.90;;;24.60;57.40;;;;;;4851319;29;20042;-83
2021/08/28 14:55:56;;;;;;;1.77;0.90;;;24.50;57.40;;;;;;4819924;29;20046;-82
2021/08/28 14:58:21;;;;;;;2.08;0.85;;;24.20;57.70;;;;;;4818031;29;20033;-84
2021/08/28 15:00:47;;;;;;;2.63;0.90;;;24.10;57.90;;;;;;4868965;29;20017;-84
2021/08/28 15:03:13;;;;;;;1.23;0.95;;;23.90;58.90;;;;;;4839531;29;20045;-83
2021/08/28 15:05:39;;;;;;;1.23;0.93;;;23.80;58.30;;;;;;4823771;29;20041;-83
2021/08/28 15:08:05;;;;;;;2.38;0.93;;;23.80;58.60;;;;;;4826113;29;20039;-84
2021/08/28 15:10:31;;;;;;;0.80;0.80;;;23.80;58.60;;;;;;4820266;29;20042;-84
2021/08/28 15:12:56;;;;;;;4.55;1.15;;;23.70;58.50;;;;;;4819796;29;20041;-84
2021/08/28 15:15:22;;;;;;;2.28;1.08;;;23.50;59.10;;;;;;4826542;29;20054;-84
2021/08/28 15:17:48;;;;;;;1.80;0.93;;;23.40;59.40;;;;;;4853202;29;20053;-78
2021/08/28 15:20:14;;;;;;;1.10;0.70;;;23.40;58.40;;;;;;4846861;29;20064;-79
2021/08/28 15:22:40;;;;;;;0.80;0.57;;;23.40;57.30;;;;;;4838744;29;20027;-78
2021/08/28 15:25:07;;;;;;;1.45;0.70;;;23.30;56.00;;;;;;4832784;29;20038;-79
2021/08/28 15:27:33;;;;;;;0.80;0.60;;;23.20;55.90;;;;;;4819939;29;20046;-78
2021/08/28 15:29:59;;;;;;;0.70;0.70;;;23.10;56.10;;;;;;4842884;29;20058;-78
2021/08/28 15:32:25;;;;;;;1.17;0.65;;;23.10;57.00;;;;;;4823494;29;20062;-78
2021/08/28 15:34:51;;;;;;;4.70;1.00;;;23.30;57.40;;;;;;4817595;29;20038;-78
2021/08/28 15:37:17;;;;;;;2.28;0.80;;;23.30;57.60;;;;;;4833383;29;20034;-78
2021/08/28 15:39:44;;;;;;;1.38;0.80;;;23.40;57.30;;;;;;4829070;29;20101;-77
2021/08/28 15:42:11;;;;;;;1.77;0.50;;;23.50;57.40;;;;;;4866036;29;20135;-77
2021/08/28 15:44:39;;;;;;;2.97;1.00;;;23.60;57.40;;;;;;4822094;29;20034;-78
2021/08/28 15:47:06;;;;;;;0.70;0.60;;;23.60;56.50;;;;;;4860552;29;20114;-78
2021/08/28 15:49:33;;;;;;;0.52;0.50;;;23.50;57.00;;;;;;4840979;29;20054;-78
2021/08/28 15:51:59;;;;;;;6.45;0.77;;;23.30;57.30;;;;;;4848138;29;20053;-78
2021/08/28 15:54:25;;;;;;;2.88;1.20;;;23.40;57.60;;;;;;4832638;29;20051;-78